Time;durP1;ratioP1;P1;durP2;ratioP2;P2;SDS_P1;SDS_P2;PMS_P1;PMS_P2;Temp;Humidity;BMP_temperature;BMP_pressure;BME280_temperature;BME280_humidity;BME280_pressure;Samples;Min_cycle;Max_cycle;Signal;HPM_P1;HPM_P2
2021/06/24 00:01:29;;;;;;;13.43;9.33;;;16.00;1.00;;;;;;5041368;28;20211;-74
2021/06/24 00:03:55;;;;;;;14.33;8.90;;;16.00;1.00;;;;;;5033774;28;20197;-74
2021/06/24 00:06:21;;;;;;;11.10;8.73;;;16.00;1.00;;;;;;5039885;28;20558;-74
2021/06/24 00:08:46;;;;;;;10.80;9.17;;;15.90;1.00;;;;;;5031577;28;20556;-74
2021/06/24 00:11:13;;;;;;;11.30;8.90;;;15.90;1.00;;;;;;5035901;28;20210;-74
2021/06/24 00:13:39;;;;;;;10.00;8.50;;;15.90;1.00;;;;;;5027051;28;20181;-74
2021/06/24 00:16:06;;;;;;;12.20;8.90;;;15.80;1.00;;;;;;5032060;28;20456;-74
2021/06/24 00:18:32;;;;;;;16.93;10.70;;;15.80;1.00;;;;;;5030994;28;20983;-74
2021/06/24 00:20:58;;;;;;;13.33;9.17;;;15.70;1.00;;;;;;5037048;28;20815;-74
2021/06/24 00:23:24;;;;;;;12.77;9.00;;;15.70;1.00;;;;;;5026940;28;20550;-74
2021/06/24 00:25:50;;;;;;;10.40;9.40;;;15.70;1.00;;;;;;5035135;28;20528;-74
2021/06/24 00:28:17;;;;;;;12.23;9.30;;;15.80;1.00;;;;;;5035034;28;20813;-74
2021/06/24 00:30:47;;;;;;;12.20;9.73;;;15.80;1.00;;;;;;5030120;28;20441;-74
2021/06/24 00:33:14;;;;;;;12.93;9.63;;;15.80;1.00;;;;;;5029618;28;20445;-74
2021/06/24 00:35:40;;;;;;;12.70;9.87;;;15.80;1.00;;;;;;5035934;28;20465;-74
2021/06/24 00:38:06;;;;;;;14.20;9.87;;;15.80;1.00;;;;;;5038416;28;20471;-74
2021/06/24 00:40:34;;;;;;;17.57;10.70;;;15.80;1.00;;;;;;5036052;28;20438;-74
2021/06/24 00:43:01;;;;;;;12.43;10.47;;;15.80;1.00;;;;;;5031101;28;20742;-74
2021/06/24 00:45:27;;;;;;;13.50;10.83;;;15.80;1.00;;;;;;5045346;28;20436;-74
2021/06/24 00:47:53;;;;;;;14.33;11.33;;;15.80;1.00;;;;;;5039464;28;21000;-73
2021/06/24 00:50:19;;;;;;;11.30;10.10;;;15.80;1.00;;;;;;5033573;28;20694;-74
2021/06/24 00:52:44;;;;;;;12.37;9.67;;;15.80;1.00;;;;;;5033106;28;20197;-74
2021/06/24 00:55:10;;;;;;;13.40;10.00;;;15.70;1.00;;;;;;5040078;28;20206;-74
2021/06/24 00:57:37;;;;;;;14.53;11.07;;;15.70;1.00;;;;;;5030075;28;20523;-74
2021/06/24 01:00:05;;;;;;;14.10;10.97;;;15.80;1.00;;;;;;5033240;28;20453;-74
2021/06/24 01:02:31;;;;;;;13.67;10.37;;;15.80;1.00;;;;;;5032596;28;20456;-74
2021/06/24 01:04:57;;;;;;;17.90;11.10;;;15.80;1.00;;;;;;5016613;28;20461;-74
2021/06/24 01:07:23;;;;;;;15.53;11.17;;;15.80;1.00;;;;;;5032169;28;20386;-74
2021/06/24 01:10:10;;;;;;;11.87;10.67;;;15.80;1.00;;;;;;5041636;28;20446;-74
2021/06/24 01:12:35;;;;;;;12.50;11.20;;;15.80;1.00;;;;;;5032500;28;20524;-73
2021/06/24 01:15:01;;;;;;;15.10;10.93;;;15.70;1.00;;;;;;5035530;28;20986;-74
2021/06/24 01:17:27;;;;;;;10.87;9.73;;;15.70;1.00;;;;;;5031307;28;20259;-74
2021/06/24 01:19:55;;;;;;;14.73;11.17;;;15.80;1.00;;;;;;5030799;28;20425;-74
2021/06/24 01:22:22;;;;;;;13.70;10.73;;;15.80;1.00;;;;;;5038813;28;20436;-74
2021/06/24 01:24:47;;;;;;;14.77;11.00;;;15.80;1.00;;;;;;5034088;28;20444;-74
2021/06/24 01:27:13;;;;;;;12.73;11.53;;;15.70;1.00;;;;;;5037191;28;20615;-73
2021/06/24 01:29:39;;;;;;;13.03;11.27;;;15.70;1.00;;;;;;5033990;28;20205;-73
2021/06/24 01:32:05;;;;;;;19.13;12.47;;;15.70;1.00;;;;;;5028300;28;20209;-74
2021/06/24 01:34:31;;;;;;;17.50;11.60;;;15.70;1.00;;;;;;5034795;28;20936;-74
2021/06/24 01:36:56;;;;;;;14.13;12.60;;;15.70;1.00;;;;;;5032111;28;20438;-73
2021/06/24 01:39:22;;;;;;;14.13;12.00;;;15.70;1.00;;;;;;5024503;28;20205;-73
2021/06/24 01:41:57;;;;;;;12.33;11.03;;;15.70;1.00;;;;;;5033046;28;20188;-74
2021/06/24 01:44:49;;;;;;;15.67;11.80;;;15.70;1.00;;;;;;5037424;28;20457;-74
2021/06/24 01:47:17;;;;;;;17.03;11.53;;;15.60;1.00;;;;;;5033029;28;20498;-74
2021/06/24 01:49:44;;;;;;;18.53;12.03;;;15.60;1.00;;;;;;5030528;28;20784;-73
2021/06/24 01:52:11;;;;;;;14.73;12.30;;;15.60;1.00;;;;;;5032248;28;20435;-74
2021/06/24 01:54:45;;;;;;;17.77;12.77;;;15.60;1.00;;;;;;5034109;28;20481;-74
2021/06/24 01:57:17;;;;;;;14.47;12.43;;;15.60;1.00;;;;;;5035270;28;20916;-74
2021/06/24 01:59:47;;;;;;;16.90;12.47;;;15.60;1.00;;;;;;5038382;28;20441;-74
2021/06/24 02:02:14;;;;;;;16.23;12.43;;;15.60;1.00;;;;;;5035439;28;20882;-74
2021/06/24 02:04:51;;;;;;;18.00;13.67;;;15.60;1.00;;;;;;5038516;28;20448;-74
2021/06/24 02:07:28;;;;;;;16.60;13.70;;;15.60;1.00;;;;;;5033226;28;20444;-74
2021/06/24 02:10:13;;;;;;;17.30;12.07;;;15.50;1.00;;;;;;5038277;28;20972;-74
2021/06/24 02:12:50;;;;;;;15.87;13.10;;;15.50;1.00;;;;;;5035695;28;20473;-74
2021/06/24 02:15:16;;;;;;;17.87;13.63;;;15.60;1.00;;;;;;5034280;28;20451;-74
2021/06/24 02:17:44;;;;;;;19.10;13.80;;;15.50;1.00;;;;;;5040804;28;20221;-74
2021/06/24 02:20:15;;;;;;;19.40;12.90;;;15.60;1.00;;;;;;5034051;28;20443;-74
2021/06/24 02:22:46;;;;;;;22.80;14.00;;;15.60;1.00;;;;;;5037267;28;20444;-74
2021/06/24 02:25:16;;;;;;;18.57;13.40;;;15.60;1.00;;;;;;5036121;28;20454;-74
2021/06/24 02:27:56;;;;;;;14.90;13.30;;;15.60;1.00;;;;;;5035226;28;20515;-74
2021/06/24 02:30:47;;;;;;;17.13;12.47;;;15.60;1.00;;;;;;5033058;28;20454;-73
2021/06/24 02:33:16;;;;;;;17.07;12.70;;;15.60;1.00;;;;;;5037573;28;21020;-74
2021/06/24 02:35:49;;;;;;;21.30;13.60;;;15.50;1.00;;;;;;5039868;28;20496;-74
2021/06/24 02:38:18;;;;;;;16.27;13.13;;;15.40;1.00;;;;;;5035876;28;20557;-74
2021/06/24 02:40:55;;;;;;;17.10;13.87;;;15.40;1.00;;;;;;5033867;28;20526;-74
2021/06/24 02:43:21;;;;;;;19.00;14.13;;;15.40;1.00;;;;;;5043414;28;20958;-74
2021/06/24 02:45:47;;;;;;;17.57;14.10;;;15.40;1.00;;;;;;5030431;28;20208;-74
2021/06/24 02:48:21;;;;;;;17.50;14.20;;;15.50;1.00;;;;;;5037671;28;20453;-74
2021/06/24 02:50:48;;;;;;;20.87;14.73;;;15.40;1.00;;;;;;5036078;28;21157;-74
2021/06/24 02:53:14;;;;;;;18.60;13.67;;;15.40;1.00;;;;;;5038830;28;20552;-74
2021/06/24 02:55:43;;;;;;;18.73;13.17;;;15.50;1.00;;;;;;5034814;28;20556;-74
2021/06/24 02:58:10;;;;;;;15.87;13.20;;;15.50;1.00;;;;;;5047449;28;20522;-74
2021/06/24 03:00:54;;;;;;;15.80;13.70;;;15.50;1.00;;;;;;5037529;28;20946;-74
2021/06/24 03:03:41;;;;;;;16.30;13.67;;;15.50;1.00;;;;;;5036886;28;20624;-74
2021/06/24 03:06:13;;;;;;;16.23;13.70;;;15.50;1.00;;;;;;5041375;28;21562;-74
2021/06/24 03:08:41;;;;;;;18.57;14.43;;;15.40;1.00;;;;;;5037485;28;20496;-74
2021/06/24 03:11:07;;;;;;;17.10;14.50;;;15.40;1.00;;;;;;5040769;28;22481;-74
2021/06/24 03:13:39;;;;;;;18.43;13.17;;;15.40;1.00;;;;;;5038646;28;20477;-73
2021/06/24 03:16:06;;;;;;;16.50;13.87;;;15.40;1.00;;;;;;5023052;28;20944;-74
2021/06/24 03:18:32;;;;;;;16.23;13.47;;;15.40;1.00;;;;;;5042697;28;20562;-74
2021/06/24 03:20:59;;;;;;;22.03;15.40;;;15.40;1.00;;;;;;5040392;28;20430;-74
2021/06/24 03:23:25;;;;;;;15.33;13.70;;;15.30;1.00;;;;;;5030450;28;20438;-74
2021/06/24 03:25:52;;;;;;;20.30;13.43;;;15.30;1.00;;;;;;5034804;28;20445;-74
2021/06/24 03:28:18;;;;;;;21.77;13.60;;;15.40;1.00;;;;;;5042692;28;21013;-74
2021/06/24 03:30:54;;;;;;;18.60;14.03;;;15.30;1.00;;;;;;5038750;28;20447;-74
2021/06/24 03:33:19;;;;;;;25.60;15.17;;;15.30;1.00;;;;;;5038689;28;20467;-73
2021/06/24 03:35:49;;;;;;;19.10;14.50;;;15.30;1.00;;;;;;5040039;28;20721;-74
2021/06/24 03:38:17;;;;;;;17.20;14.03;;;15.20;1.00;;;;;;5042596;28;20465;-73
2021/06/24 03:40:43;;;;;;;21.10;15.67;;;15.20;1.00;;;;;;5032795;28;20444;-74
2021/06/24 03:43:09;;;;;;;17.77;14.70;;;15.20;1.00;;;;;;5036863;28;20536;-74
2021/06/24 03:45:37;;;;;;;16.30;14.63;;;15.10;1.00;;;;;;5026352;28;20461;-74
2021/06/24 03:48:05;;;;;;;23.87;15.17;;;15.10;1.00;;;;;;5040439;28;20873;-74
2021/06/24 03:50:31;;;;;;;18.73;14.60;;;15.10;1.00;;;;;;5030729;28;20968;-74
2021/06/24 03:52:57;;;;;;;16.43;14.70;;;15.00;1.00;;;;;;5031373;28;20482;-74
2021/06/24 03:55:44;;;;;;;20.27;14.63;;;15.00;1.00;;;;;;5041015;28;20307;-73
2021/06/24 03:58:28;;;;;;;21.63;14.00;;;15.00;1.00;;;;;;5044879;28;20707;-74
2021/06/24 04:00:54;;;;;;;18.03;14.33;;;15.10;1.00;;;;;;5034471;28;20966;-74
2021/06/24 04:03:21;;;;;;;15.83;14.00;;;15.10;1.00;;;;;;5033441;28;20548;-73
2021/06/24 04:05:58;;;;;;;20.80;15.73;;;15.20;1.00;;;;;;5037634;28;20457;-74
2021/06/24 04:08:24;;;;;;;17.80;15.47;;;15.10;1.00;;;;;;5033885;28;20525;-74
2021/06/24 04:10:51;;;;;;;20.77;15.30;;;15.10;1.00;;;;;;5034344;28;20445;-74
2021/06/24 04:13:18;;;;;;;19.67;14.50;;;15.20;1.00;;;;;;5040116;28;20856;-74
2021/06/24 04:15:44;;;;;;;22.00;13.13;;;15.10;1.00;;;;;;5018018;28;21530;-74
2021/06/24 04:18:10;;;;;;;17.37;13.30;;;15.30;1.00;;;;;;5016884;28;20660;-74
2021/06/24 04:20:41;;;;;;;25.50;14.23;;;15.40;1.00;;;;;;5024303;28;20171;-74
2021/06/24 04:23:07;;;;;;;18.97;14.20;;;15.40;1.00;;;;;;5030086;28;20747;-74
2021/06/24 04:25:50;;;;;;;15.17;13.27;;;15.50;1.00;;;;;;5032175;28;20445;-74
2021/06/24 04:28:17;;;;;;;16.20;13.93;;;15.50;1.00;;;;;;5026659;28;20444;-74
2021/06/24 04:30:55;;;;;;;19.40;13.47;;;15.50;1.00;;;;;;5018460;28;20957;-74
2021/06/24 04:33:21;;;;;;;18.53;13.77;;;15.50;1.00;;;;;;5030588;28;20453;-74
2021/06/24 04:36:23;;;;;;;16.77;13.80;;;15.50;1.00;;;;;;5029269;28;20269;-74
2021/06/24 04:38:56;;;;;;;18.50;13.93;;;15.50;1.00;;;;;;5023866;28;20612;-73
2021/06/24 04:41:22;;;;;;;21.30;15.33;;;15.40;1.00;;;;;;5036315;28;20792;-73
2021/06/24 04:43:59;;;;;;;21.47;14.93;;;15.40;1.00;;;;;;5034218;28;20650;-73
2021/06/24 04:46:27;;;;;;;17.27;13.93;;;15.40;1.00;;;;;;5025508;28;21011;-74
2021/06/24 04:48:53;;;;;;;23.57;15.60;;;15.30;1.00;;;;;;5029143;28;20442;-73
2021/06/24 04:51:42;;;;;;;20.57;13.97;;;15.30;1.00;;;;;;5030204;28;20207;-74
2021/06/24 04:54:08;;;;;;;21.13;14.27;;;15.30;1.00;;;;;;5034031;28;20451;-74
2021/06/24 04:56:38;;;;;;;20.00;14.00;;;15.40;1.00;;;;;;5023940;28;20459;-74
2021/06/24 04:59:04;;;;;;;33.90;15.03;;;15.40;1.00;;;;;;5034683;28;20821;-74
2021/06/24 05:01:50;;;;;;;26.17;16.50;;;15.40;1.00;;;;;;5040424;28;20206;-74
2021/06/24 05:04:36;;;;;;;21.90;14.80;;;15.50;1.00;;;;;;5036112;28;20980;-74
2021/06/24 05:07:08;;;;;;;18.60;13.07;;;15.60;1.00;;;;;;5031522;28;20454;-74
2021/06/24 05:09:39;;;;;;;21.50;14.57;;;15.60;1.00;;;;;;5037071;28;20194;-74
2021/06/24 05:12:09;;;;;;;30.47;14.60;;;15.60;1.00;;;;;;5044862;28;20468;-75
2021/06/24 05:14:36;;;;;;;16.97;13.80;;;15.60;1.00;;;;;;5046063;28;20457;-74
2021/06/24 05:17:03;;;;;;;26.23;15.37;;;15.60;1.00;;;;;;5043148;28;20520;-75
2021/06/24 05:19:29;;;;;;;21.93;15.57;;;15.60;1.00;;;;;;5048864;28;20998;-74
2021/06/24 05:21:55;;;;;;;34.40;16.17;;;15.50;1.00;;;;;;5038664;28;20452;-74
2021/06/24 05:24:21;;;;;;;22.93;15.67;;;15.60;1.00;;;;;;5039997;28;20185;-74
2021/06/24 05:26:46;;;;;;;20.23;15.83;;;15.60;1.00;;;;;;5041580;28;20216;-74
2021/06/24 05:29:12;;;;;;;23.60;14.27;;;15.60;1.00;;;;;;5054986;28;20656;-74
2021/06/24 05:31:39;;;;;;;20.87;14.23;;;15.70;1.00;;;;;;5049232;28;20194;-74
2021/06/24 05:34:05;;;;;;;24.13;14.03;;;15.70;1.00;;;;;;5044323;28;20183;-75
2021/06/24 05:36:32;;;;;;;23.50;14.83;;;15.70;1.00;;;;;;5051742;28;21055;-74
2021/06/24 05:38:58;;;;;;;21.47;16.93;;;15.70;1.00;;;;;;5039925;28;20496;-74
2021/06/24 05:41:23;;;;;;;26.43;15.20;;;15.70;1.00;;;;;;5036806;28;20436;-74
2021/06/24 05:43:49;;;;;;;20.23;15.30;;;15.70;1.00;;;;;;5043583;28;20455;-74
2021/06/24 05:46:15;;;;;;;18.63;15.80;;;15.70;1.00;;;;;;5050159;28;20440;-74
2021/06/24 05:48:41;;;;;;;23.77;16.70;;;15.80;1.00;;;;;;5040369;28;20692;-75
2021/06/24 05:51:06;;;;;;;20.27;14.33;;;15.80;1.00;;;;;;5055334;28;20186;-75
2021/06/24 05:53:32;;;;;;;17.63;14.40;;;15.90;1.00;;;;;;5045265;28;20196;-74
2021/06/24 05:55:58;;;;;;;21.03;15.47;;;15.90;1.00;;;;;;5048297;28;20275;-75
2021/06/24 05:58:26;;;;;;;20.00;14.43;;;16.00;1.00;;;;;;5048978;28;20703;-74
2021/06/24 06:00:54;;;;;;;21.47;16.43;;;16.10;1.00;;;;;;5040205;28;20454;-74
2021/06/24 06:03:21;;;;;;;17.70;13.87;;;16.30;1.00;;;;;;5050353;28;20456;-74
2021/06/24 06:05:47;;;;;;;15.53;12.23;;;16.40;1.00;;;;;;5045045;28;20787;-74
2021/06/24 06:08:13;;;;;;;21.80;15.17;;;16.50;1.00;;;;;;5048631;28;20510;-73
2021/06/24 06:10:40;;;;;;;26.23;15.00;;;16.60;1.00;;;;;;5046204;28;20454;-74
2021/06/24 06:13:07;;;;;;;20.83;15.30;;;16.50;1.00;;;;;;5052618;28;20813;-74
2021/06/24 06:15:35;;;;;;;18.53;14.57;;;16.60;1.00;;;;;;5042082;28;20837;-74
2021/06/24 06:18:01;;;;;;;19.70;15.33;;;16.60;1.00;;;;;;5051187;28;20467;-74
2021/06/24 06:20:28;;;;;;;21.80;15.93;;;16.50;1.00;;;;;;5048934;28;20986;-74
2021/06/24 06:22:54;;;;;;;22.93;14.50;;;16.50;1.00;;;;;;5050662;28;20253;-74
2021/06/24 06:25:19;;;;;;;20.17;15.17;;;16.50;1.00;;;;;;5036099;28;20521;-75
2021/06/24 06:27:45;;;;;;;19.93;14.93;;;16.50;1.00;;;;;;5037951;28;20187;-74
2021/06/24 06:30:11;;;;;;;25.93;15.90;;;16.50;1.00;;;;;;5042551;28;20183;-74
2021/06/24 06:32:37;;;;;;;23.30;16.23;;;16.50;1.00;;;;;;5048075;28;20211;-73
2021/06/24 06:35:03;;;;;;;25.63;15.70;;;16.40;1.00;;;;;;5041241;28;20816;-73
2021/06/24 06:37:29;;;;;;;21.23;15.97;;;16.40;1.00;;;;;;5044934;28;20179;-73
2021/06/24 06:39:54;;;;;;;20.40;15.40;;;16.40;1.00;;;;;;5037383;28;21084;-73
2021/06/24 06:42:20;;;;;;;24.50;16.77;;;16.30;1.00;;;;;;5041471;28;20278;-74
2021/06/24 06:44:46;;;;;;;28.80;17.80;;;16.30;1.00;;;;;;5047331;28;20276;-74
2021/06/24 06:47:11;;;;;;;18.80;16.27;;;16.30;1.00;;;;;;5044370;28;20206;-74
2021/06/24 06:49:37;;;;;;;21.73;17.57;;;16.30;1.00;;;;;;5052787;28;20742;-74
2021/06/24 06:52:03;;;;;;;28.30;17.43;;;16.40;1.00;;;;;;5047268;28;20193;-74
2021/06/24 06:54:28;;;;;;;21.83;16.90;;;16.40;1.00;;;;;;5052272;28;20218;-74
2021/06/24 06:56:54;;;;;;;26.23;18.63;;;16.30;1.00;;;;;;5052851;28;20492;-73
2021/06/24 06:59:20;;;;;;;23.90;18.27;;;16.40;1.00;;;;;;5051447;28;20171;-73
2021/06/24 07:01:45;;;;;;;25.27;17.83;;;16.40;1.00;;;;;;5052521;28;20206;-74
2021/06/24 07:04:11;;;;;;;24.00;17.63;;;16.50;1.00;;;;;;5048806;28;20234;-74
2021/06/24 07:06:38;;;;;;;24.90;18.27;;;16.60;1.00;;;;;;5056878;28;20179;-73
2021/06/24 07:09:04;;;;;;;29.53;18.40;;;16.50;1.00;;;;;;5054339;28;20313;-73
2021/06/24 07:11:29;;;;;;;27.13;18.80;;;16.60;1.00;;;;;;5052974;28;20816;-74
2021/06/24 07:13:55;;;;;;;22.33;18.13;;;16.70;1.00;;;;;;5054824;28;20195;-73
2021/06/24 07:16:21;;;;;;;24.47;17.73;;;16.80;1.00;;;;;;5042217;28;20200;-73
2021/06/24 07:18:46;;;;;;;26.20;17.30;;;16.80;1.00;;;;;;5045468;28;20644;-73
2021/06/24 07:21:12;;;;;;;21.23;17.03;;;16.80;1.00;;;;;;5049241;28;20443;-74
2021/06/24 07:23:38;;;;;;;31.37;18.47;;;16.90;1.00;;;;;;5054976;28;20175;-73
2021/06/24 07:26:05;;;;;;;19.73;17.63;;;16.90;1.00;;;;;;5056148;28;20491;-74
2021/06/24 07:28:30;;;;;;;20.20;16.87;;;17.00;1.00;;;;;;5048209;28;20547;-74
2021/06/24 07:30:56;;;;;;;25.10;18.40;;;17.10;1.00;;;;;;5052033;28;20482;-75
2021/06/24 07:33:22;;;;;;;24.10;18.70;;;17.20;1.00;;;;;;5050657;28;20213;-74
2021/06/24 07:35:48;;;;;;;19.20;16.63;;;17.20;1.00;;;;;;5036485;28;20215;-74
2021/06/24 07:38:14;;;;;;;26.77;19.00;;;17.20;1.00;;;;;;5033702;28;20479;-74
2021/06/24 07:40:40;;;;;;;27.23;18.30;;;17.30;1.00;;;;;;5034956;28;20637;-73
2021/06/24 07:43:06;;;;;;;22.57;18.23;;;17.30;1.00;;;;;;5032816;28;20194;-74
2021/06/24 07:45:33;;;;;;;19.40;16.80;;;17.20;1.00;;;;;;5032988;28;20468;-74
2021/06/24 07:47:58;;;;;;;21.83;17.57;;;17.20;1.00;;;;;;5026963;28;20476;-73
2021/06/24 07:50:24;;;;;;;26.87;18.63;;;17.10;1.00;;;;;;5039320;28;20447;-73
2021/06/24 07:52:50;;;;;;;27.63;16.90;;;17.10;1.00;;;;;;5039849;28;20174;-73
2021/06/24 07:55:16;;;;;;;21.80;17.30;;;17.10;1.00;;;;;;5038605;28;20913;-74
2021/06/24 07:57:43;;;;;;;27.37;17.43;;;17.20;1.00;;;;;;5028510;28;20238;-74
2021/06/24 08:00:10;;;;;;;23.33;16.90;;;17.20;1.00;;;;;;5037680;28;20581;-74
2021/06/24 08:02:45;;;;;;;26.80;18.17;;;17.10;1.00;;;;;;5022176;28;20468;-73
2021/06/24 08:05:16;;;;;;;23.30;17.20;;;17.20;1.00;;;;;;5031747;28;20556;-73
2021/06/24 08:07:44;;;;;;;22.40;17.10;;;17.20;1.00;;;;;;5036903;28;20829;-74
2021/06/24 08:10:11;;;;;;;19.57;16.93;;;17.20;1.00;;;;;;5031916;28;20238;-73
2021/06/24 08:12:40;;;;;;;24.27;17.93;;;17.20;1.00;;;;;;5037372;28;20453;-74
2021/06/24 08:15:06;;;;;;;22.07;15.63;;;17.30;1.00;;;;;;5026976;28;21140;-74
2021/06/24 08:17:32;;;;;;;23.40;17.17;;;17.40;1.00;;;;;;5034683;28;20503;-73
2021/06/24 08:19:59;;;;;;;24.17;17.63;;;17.30;1.00;;;;;;5039895;28;20476;-73
2021/06/24 08:22:25;;;;;;;23.13;17.00;;;17.30;1.00;;;;;;5033884;28;20446;-74
2021/06/24 08:24:51;;;;;;;30.67;17.90;;;17.20;1.00;;;;;;5039139;28;20277;-74
2021/06/24 08:27:17;;;;;;;24.20;17.97;;;17.20;1.00;;;;;;5041046;28;20457;-74
2021/06/24 08:29:42;;;;;;;23.80;19.40;;;17.30;1.00;;;;;;5038616;28;20187;-74
2021/06/24 08:32:08;;;;;;;33.33;20.70;;;17.40;1.00;;;;;;5039247;28;20770;-74
2021/06/24 08:34:34;;;;;;;33.17;18.53;;;17.30;1.00;;;;;;5036598;28;20648;-74
2021/06/24 08:37:00;;;;;;;21.50;18.90;;;17.40;1.00;;;;;;5033407;28;20211;-74
2021/06/24 08:39:25;;;;;;;25.50;18.43;;;17.40;1.00;;;;;;5026036;28;20183;-73
2021/06/24 08:41:51;;;;;;;29.03;17.80;;;17.50;1.00;;;;;;5025575;28;20182;-74
2021/06/24 08:44:21;;;;;;;31.07;21.27;;;17.50;1.00;;;;;;5026286;28;20185;-73
2021/06/24 08:46:51;;;;;;;22.90;16.70;;;17.40;1.00;;;;;;5031283;28;22130;-74
2021/06/24 08:49:22;;;;;;;23.50;17.53;;;17.40;1.00;;;;;;5035519;28;20867;-74
2021/06/24 08:51:47;;;;;;;23.63;18.60;;;17.40;1.00;;;;;;5038122;28;20442;-74
2021/06/24 08:54:13;;;;;;;27.97;18.50;;;17.50;1.00;;;;;;5038720;28;20452;-73
2021/06/24 08:56:40;;;;;;;25.27;19.50;;;17.50;1.00;;;;;;5037635;28;20580;-73
2021/06/24 08:59:08;;;;;;;23.40;19.50;;;17.50;1.00;;;;;;5036988;28;20222;-73
2021/06/24 09:01:59;;;;;;;22.93;19.60;;;17.50;1.00;;;;;;5034597;28;20448;-73
2021/06/24 09:04:28;;;;;;;20.47;18.33;;;17.60;1.00;;;;;;5032700;28;20510;-73
2021/06/24 09:07:04;;;;;;;25.33;20.37;;;17.70;1.00;;;;;;5037297;28;20968;-73
2021/06/24 09:09:36;;;;;;;25.07;19.60;;;17.70;1.00;;;;;;5041005;28;20946;-73
2021/06/24 09:12:10;;;;;;;23.53;20.20;;;17.60;1.00;;;;;;5035480;28;20938;-72
2021/06/24 09:14:40;;;;;;;23.50;18.23;;;17.60;1.00;;;;;;5025577;28;20997;-73
2021/06/24 09:17:06;;;;;;;24.63;19.80;;;17.60;1.00;;;;;;5030645;28;20460;-73
2021/06/24 09:19:35;;;;;;;22.40;16.77;;;17.70;1.00;;;;;;5038991;28;20460;-73
2021/06/24 09:22:08;;;;;;;19.93;17.20;;;17.90;1.00;;;;;;5027144;28;20448;-73
2021/06/24 09:24:49;;;;;;;23.47;18.70;;;18.00;1.00;;;;;;5029292;28;20879;-73
2021/06/24 09:27:17;;;;;;;19.37;17.47;;;18.10;1.00;;;;;;5028892;28;20555;-73
2021/06/24 09:29:58;;;;;;;24.90;19.67;;;18.10;1.00;;;;;;5028528;28;20960;-73
2021/06/24 09:32:32;;;;;;;24.97;16.40;;;18.00;1.00;;;;;;5032328;28;20457;-73
2021/06/24 09:35:02;;;;;;;24.70;18.80;;;18.10;1.00;;;;;;5031299;28;20465;-73
2021/06/24 09:37:28;;;;;;;20.60;16.07;;;18.00;1.00;;;;;;5030334;28;20449;-73
2021/06/24 09:39:55;;;;;;;19.33;16.80;;;18.10;1.00;;;;;;5033877;28;20536;-72
2021/06/24 09:42:22;;;;;;;19.80;17.70;;;18.20;1.00;;;;;;5026242;28;20445;-72
2021/06/24 09:44:48;;;;;;;25.00;16.80;;;18.10;1.00;;;;;;5034406;28;20507;-73
2021/06/24 09:47:29;;;;;;;24.53;17.30;;;18.30;1.00;;;;;;5039868;28;20981;-73
2021/06/24 09:50:03;;;;;;;21.27;18.40;;;18.20;1.00;;;;;;5033455;28;20452;-73
2021/06/24 09:52:30;;;;;;;24.20;18.00;;;18.20;1.00;;;;;;5033462;28;20444;-73
2021/06/24 09:55:06;;;;;;;20.87;18.07;;;18.30;1.00;;;;;;5036622;28;20495;-73
2021/06/24 09:57:33;;;;;;;18.53;16.63;;;18.30;1.00;;;;;;5037646;28;20555;-73
2021/06/24 10:00:21;;;;;;;23.20;17.33;;;18.30;1.00;;;;;;5036085;28;20994;-73
2021/06/24 10:03:08;;;;;;;23.33;17.40;;;18.30;1.00;;;;;;5029041;28;20454;-72
2021/06/24 10:05:36;;;;;;;25.00;19.43;;;18.60;1.00;;;;;;5038190;28;20495;-72
2021/06/24 10:08:02;;;;;;;18.57;16.50;;;18.70;1.00;;;;;;5028041;28;20456;-73
2021/06/24 10:10:28;;;;;;;19.27;16.87;;;18.80;1.00;;;;;;5033771;28;20510;-73
2021/06/24 10:12:54;;;;;;;20.47;16.90;;;18.80;1.00;;;;;;5031720;28;20853;-73
2021/06/24 10:15:20;;;;;;;19.70;15.60;;;18.80;1.00;;;;;;5035162;28;20228;-72
2021/06/24 10:17:46;;;;;;;18.50;16.60;;;18.70;1.00;;;;;;5022890;28;20661;-73
2021/06/24 10:20:12;;;;;;;38.60;28.10;;;18.60;1.00;;;;;;5039934;28;22450;-73
2021/06/24 10:22:39;;;;;;;19.83;17.90;;;18.60;1.00;;;;;;5040414;28;20187;-73
2021/06/24 10:25:15;;;;;;;25.23;18.53;;;18.70;1.00;;;;;;5028574;28;21004;-73
2021/06/24 10:27:45;;;;;;;18.77;16.67;;;18.70;1.00;;;;;;5035728;28;20536;-73
2021/06/24 10:30:12;;;;;;;18.73;16.00;;;18.60;1.00;;;;;;5022985;28;20456;-72
2021/06/24 10:32:39;;;;;;;24.97;17.57;;;18.50;1.00;;;;;;5036606;28;20845;-73
2021/06/24 10:35:07;;;;;;;23.30;18.13;;;18.50;1.00;;;;;;5042962;28;20471;-73
2021/06/24 10:37:34;;;;;;;20.50;16.90;;;18.40;1.00;;;;;;5049656;28;20520;-72
2021/06/24 10:40:23;;;;;;;20.83;18.20;;;18.40;1.00;;;;;;5044123;28;20445;-73
2021/06/24 10:42:55;;;;;;;20.20;17.47;;;18.40;1.00;;;;;;5036987;28;20441;-73
2021/06/24 10:45:22;;;;;;;26.20;19.03;;;18.40;1.00;;;;;;5044323;28;20529;-73
2021/06/24 10:47:49;;;;;;;19.90;17.90;;;18.40;1.00;;;;;;5043250;28;20507;-73
2021/06/24 10:50:27;;;;;;;18.73;16.90;;;18.50;1.00;;;;;;5038543;28;20443;-73
2021/06/24 10:52:54;;;;;;;21.07;18.87;;;18.50;1.00;;;;;;5031116;28;20444;-72
2021/06/24 10:55:49;;;;;;;23.07;17.97;;;18.60;1.00;;;;;;5035894;28;20540;-72
2021/06/24 10:58:18;;;;;;;22.60;18.17;;;18.70;1.00;;;;;;5035203;28;21116;-72
2021/06/24 11:00:47;;;;;;;20.43;18.00;;;18.70;1.00;;;;;;5036327;28;20441;-73
2021/06/24 11:03:18;;;;;;;21.20;18.97;;;18.80;1.00;;;;;;5037022;28;20820;-73
2021/06/24 11:05:44;;;;;;;23.03;17.10;;;19.00;1.00;;;;;;5032170;28;21021;-72
2021/06/24 11:08:15;;;;;;;26.80;19.00;;;19.20;1.00;;;;;;5038116;28;20445;-73
2021/06/24 11:10:51;;;;;;;19.77;17.50;;;19.20;1.00;;;;;;5036892;28;20733;-73
2021/06/24 11:16:07;;;;;;;24.47;17.60;;;19.30;1.00;;;;;;5029787;28;20474;-73
2021/06/24 11:18:38;;;;;;;20.03;17.87;;;19.40;1.00;;;;;;5028233;28;21322;-73
2021/06/24 11:21:06;;;;;;;20.93;18.30;;;19.20;1.00;;;;;;5035020;28;20898;-73
2021/06/24 11:23:44;;;;;;;28.10;17.97;;;19.20;1.00;;;;;;5032312;28;20967;-73
2021/06/24 11:26:12;;;;;;;19.70;17.60;;;19.20;1.00;;;;;;5038127;28;20436;-73
2021/06/24 11:28:44;;;;;;;20.17;17.70;;;19.40;1.00;;;;;;5040394;28;20915;-73
2021/06/24 11:31:12;;;;;;;20.80;17.57;;;19.50;1.00;;;;;;5038952;28;20467;-73
2021/06/24 11:33:47;;;;;;;20.40;17.10;;;19.60;1.00;;;;;;5037470;28;20459;-73
2021/06/24 11:36:15;;;;;;;20.63;18.27;;;19.70;1.00;;;;;;5039659;28;20476;-73
2021/06/24 11:38:51;;;;;;;25.93;18.47;;;19.60;1.00;;;;;;5032457;28;20845;-73
2021/06/24 11:41:21;;;;;;;18.13;16.33;;;19.50;1.00;;;;;;5039988;28;20532;-73
2021/06/24 11:44:02;;;;;;;18.57;16.53;;;19.40;1.00;;;;;;5041082;28;20438;-73
2021/06/24 11:46:36;;;;;;;20.07;18.00;;;19.40;1.00;;;;;;5036553;28;21324;-73
2021/06/24 12:03:07;;;;;;;22.20;18.10;;;19.40;1.00;;;;;;5034167;28;20536;-73
2021/06/24 12:05:37;;;;;;;21.90;17.93;;;19.30;1.00;;;;;;5027264;28;20462;-73
2021/06/24 12:08:03;;;;;;;19.17;16.83;;;19.40;1.00;;;;;;5017088;28;20457;-73
2021/06/24 12:10:28;;;;;;;21.43;18.33;;;19.50;1.00;;;;;;5021934;28;20461;-73
2021/06/24 12:12:54;;;;;;;21.40;19.20;;;19.60;1.00;;;;;;5026064;28;20192;-73
2021/06/24 12:15:20;;;;;;;19.27;17.37;;;19.80;1.00;;;;;;5030329;28;20210;-73
2021/06/24 12:17:45;;;;;;;24.93;18.57;;;19.90;1.00;;;;;;5029700;28;20173;-73
2021/06/24 12:20:20;;;;;;;18.57;16.73;;;19.90;1.00;;;;;;5022386;28;20271;-73
2021/06/24 12:22:58;;;;;;;24.23;19.30;;;19.90;1.00;;;;;;5023847;28;20271;-73
2021/06/24 12:25:29;;;;;;;21.93;18.13;;;19.90;1.00;;;;;;5031514;28;20572;-73
2021/06/24 12:27:58;;;;;;;20.73;18.40;;;19.80;1.00;;;;;;5031759;28;20457;-73
2021/06/24 12:30:24;;;;;;;21.60;19.30;;;19.80;1.00;;;;;;5029682;28;20622;-73
2021/06/24 12:32:51;;;;;;;20.60;18.50;;;19.90;1.00;;;;;;5038894;28;20450;-74
2021/06/24 12:35:23;;;;;;;21.73;19.70;;;19.80;1.00;;;;;;5041891;28;20212;-73
2021/06/24 12:37:51;;;;;;;21.10;18.80;;;19.80;1.00;;;;;;5024310;28;20453;-73
2021/06/24 12:40:18;;;;;;;21.10;19.17;;;19.70;1.00;;;;;;5035809;28;20610;-73
2021/06/24 12:42:51;;;;;;;21.77;18.33;;;19.60;1.00;;;;;;5040426;28;22211;-73
2021/06/24 12:45:19;;;;;;;23.53;20.17;;;19.60;1.00;;;;;;5034224;28;20459;-73
2021/06/24 12:47:46;;;;;;;23.00;18.90;;;19.60;1.00;;;;;;5032869;28;20871;-73
2021/06/24 12:50:21;;;;;;;25.77;21.10;;;19.70;1.00;;;;;;5028225;28;20532;-74
2021/06/24 12:52:50;;;;;;;21.63;19.30;;;19.80;1.00;;;;;;5023142;28;20437;-73
2021/06/24 12:55:52;;;;;;;23.80;19.47;;;19.80;1.00;;;;;;5018961;28;20484;-73
2021/06/24 12:58:27;;;;;;;20.67;18.03;;;19.90;1.00;;;;;;4995411;28;20520;-73
2021/06/24 13:01:00;;;;;;;24.30;19.73;;;20.00;1.00;;;;;;5020288;28;20449;-73
2021/06/24 13:03:34;;;;;;;22.40;19.00;;;20.10;1.00;;;;;;5013392;28;20470;-73
2021/06/24 13:06:26;;;;;;;33.67;19.77;;;20.30;1.00;;;;;;5018220;28;20465;-73